sensor_id;sensor_type;location;lat;lon;timestamp;temperature;humidity
36434;DHT22;31691;51.972;5.672;2023-09-12T00:04:48;26.20;99.90
36434;DHT22;31691;51.972;5.672;2023-09-12T00:09:52;26.40;99.90
36434;DHT22;31691;51.972;5.672;2023-09-12T00:14:55;26.30;99.90
36434;DHT22;31691;51.972;5.672;2023-09-12T00:19:57;26.20;99.90
36434;DHT22;31691;51.972;5.672;2023-09-12T00:24:59;26.30;99.90
36434;DHT22;31691;51.972;5.672;2023-09-12T00:30:02;26.20;99.90
36434;DHT22;31691;51.972;5.672;2023-09-12T00:35:04;26.30;99.90
36434;DHT22;31691;51.972;5.672;2023-09-12T00:40:14;26.30;99.90
36434;DHT22;31691;51.972;5.672;2023-09-12T00:45:16;26.30;99.90
36434;DHT22;31691;51.972;5.672;2023-09-12T00:50:21;26.30;99.90
36434;DHT22;31691;51.972;5.672;2023-09-12T00:55:24;26.40;99.90
36434;DHT22;31691;51.972;5.672;2023-09-12T01:00:27;26.30;99.90
36434;DHT22;31691;51.972;5.672;2023-09-12T01:05:30;26.40;99.90
36434;DHT22;31691;51.972;5.672;2023-09-12T01:10:32;26.40;99.90
36434;DHT22;31691;51.972;5.672;2023-09-12T01:15:34;26.40;99.90
36434;DHT22;31691;51.972;5.672;2023-09-12T01:20:39;26.40;99.90
36434;DHT22;31691;51.972;5.672;2023-09-12T01:26:15;26.30;99.90
36434;DHT22;31691;51.972;5.672;2023-09-12T01:31:17;26.30;99.90
36434;DHT22;31691;51.972;5.672;2023-09-12T01:36:21;26.30;99.90
36434;DHT22;31691;51.972;5.672;2023-09-12T01:41:23;26.30;99.90
36434;DHT22;31691;51.972;5.672;2023-09-12T01:46:26;26.20;99.90
36434;DHT22;31691;51.972;5.672;2023-09-12T01:51:29;26.10;99.90
36434;DHT22;31691;51.972;5.672;2023-09-12T01:56:32;26.10;99.90
36434;DHT22;31691;51.972;5.672;2023-09-12T02:01:35;26.00;99.90
36434;DHT22;31691;51.972;5.672;2023-09-12T02:06:37;26.00;99.90
36434;DHT22;31691;51.972;5.672;2023-09-12T02:11:40;25.90;99.90
36434;DHT22;31691;51.972;5.672;2023-09-12T02:16:43;25.80;99.90
36434;DHT22;31691;51.972;5.672;2023-09-12T02:21:46;25.80;99.90
36434;DHT22;31691;51.972;5.672;2023-09-12T02:26:48;25.80;99.90
36434;DHT22;31691;51.972;5.672;2023-09-12T02:31:50;25.70;99.90
36434;DHT22;31691;51.972;5.672;2023-09-12T02:36:52;25.70;99.90
36434;DHT22;31691;51.972;5.672;2023-09-12T02:41:55;25.60;99.90
36434;DHT22;31691;51.972;5.672;2023-09-12T02:46:57;25.60;99.90
36434;DHT22;31691;51.972;5.672;2023-09-12T02:51:59;25.50;99.90
36434;DHT22;31691;51.972;5.672;2023-09-12T02:57:02;25.30;99.90
36434;DHT22;31691;51.972;5.672;2023-09-12T03:02:04;25.30;99.90
36434;DHT22;31691;51.972;5.672;2023-09-12T03:07:07;25.30;99.90
36434;DHT22;31691;51.972;5.672;2023-09-12T03:12:09;25.30;99.90
36434;DHT22;31691;51.972;5.672;2023-09-12T03:17:11;25.30;99.90
36434;DHT22;31691;51.972;5.672;2023-09-12T03:22:14;25.20;99.90
36434;DHT22;31691;51.972;5.672;2023-09-12T03:27:16;25.20;99.90
36434;DHT22;31691;51.972;5.672;2023-09-12T03:32:18;25.20;99.90
36434;DHT22;31691;51.972;5.672;2023-09-12T03:37:20;25.20;99.90
36434;DHT22;31691;51.972;5.672;2023-09-12T03:42:23;25.20;99.90
36434;DHT22;31691;51.972;5.672;2023-09-12T03:47:38;25.20;99.90
36434;DHT22;31691;51.972;5.672;2023-09-12T03:52:41;25.30;99.90
36434;DHT22;31691;51.972;5.672;2023-09-12T03:57:43;25.20;99.90
36434;DHT22;31691;51.972;5.672;2023-09-12T04:02:46;25.10;99.90
36434;DHT22;31691;51.972;5.672;2023-09-12T04:07:48;25.30;99.90
36434;DHT22;31691;51.972;5.672;2023-09-12T04:12:50;25.30;99.90
36434;DHT22;31691;51.972;5.672;2023-09-12T04:17:52;25.30;99.90
36434;DHT22;31691;51.972;5.672;2023-09-12T04:22:55;25.40;99.90
36434;DHT22;31691;51.972;5.672;2023-09-12T04:27:57;25.50;99.90
36434;DHT22;31691;51.972;5.672;2023-09-12T04:33:00;25.40;99.90
36434;DHT22;31691;51.972;5.672;2023-09-12T04:38:03;25.40;99.90
36434;DHT22;31691;51.972;5.672;2023-09-12T04:43:05;25.30;99.90
36434;DHT22;31691;51.972;5.672;2023-09-12T04:48:07;25.30;99.90
36434;DHT22;31691;51.972;5.672;2023-09-12T04:53:10;25.30;99.90
36434;DHT22;31691;51.972;5.672;2023-09-12T04:58:12;25.20;99.90
36434;DHT22;31691;51.972;5.672;2023-09-12T05:03:14;25.20;99.90
36434;DHT22;31691;51.972;5.672;2023-09-12T05:08:17;25.20;99.90
36434;DHT22;31691;51.972;5.672;2023-09-12T05:13:20;25.30;99.90
36434;DHT22;31691;51.972;5.672;2023-09-12T05:18:23;25.40;99.90
36434;DHT22;31691;51.972;5.672;2023-09-12T05:23:25;25.50;99.90
36434;DHT22;31691;51.972;5.672;2023-09-12T05:28:27;25.50;99.90
36434;DHT22;31691;51.972;5.672;2023-09-12T05:33:29;25.60;99.90
36434;DHT22;31691;51.972;5.672;2023-09-12T05:38:35;25.60;99.90
36434;DHT22;31691;51.972;5.672;2023-09-12T05:43:37;25.60;99.90
36434;DHT22;31691;51.972;5.672;2023-09-12T05:48:39;25.70;99.90
36434;DHT22;31691;51.972;5.672;2023-09-12T05:53:42;25.80;99.90
36434;DHT22;31691;51.972;5.672;2023-09-12T05:58:44;25.80;99.90
36434;DHT22;31691;51.972;5.672;2023-09-12T06:03:46;26.00;99.90
36434;DHT22;31691;51.972;5.672;2023-09-12T06:08:49;26.00;99.90
36434;DHT22;31691;51.972;5.672;2023-09-12T06:13:51;26.10;99.90
36434;DHT22;31691;51.972;5.672;2023-09-12T06:18:53;26.30;99.90
36434;DHT22;31691;51.972;5.672;2023-09-12T06:24:12;26.40;99.90
36434;DHT22;31691;51.972;5.672;2023-09-12T06:29:15;26.50;99.90
36434;DHT22;31691;51.972;5.672;2023-09-12T06:34:18;26.70;99.90
36434;DHT22;31691;51.972;5.672;2023-09-12T06:39:20;26.80;99.90
36434;DHT22;31691;51.972;5.672;2023-09-12T06:44:22;26.90;99.90
36434;DHT22;31691;51.972;5.672;2023-09-12T06:49:25;26.90;99.90
36434;DHT22;31691;51.972;5.672;2023-09-12T06:54:27;27.10;99.90
36434;DHT22;31691;51.972;5.672;2023-09-12T06:59:29;27.10;99.90
36434;DHT22;31691;51.972;5.672;2023-09-12T07:04:31;27.20;99.90
36434;DHT22;31691;51.972;5.672;2023-09-12T07:09:34;27.30;99.90
36434;DHT22;31691;51.972;5.672;2023-09-12T07:14:36;27.30;99.90
36434;DHT22;31691;51.972;5.672;2023-09-12T07:19:40;27.40;99.90
36434;DHT22;31691;51.972;5.672;2023-09-12T07:24:45;27.60;99.90
36434;DHT22;31691;51.972;5.672;2023-09-12T07:29:47;27.80;99.90
36434;DHT22;31691;51.972;5.672;2023-09-12T07:34:49;28.00;99.90
36434;DHT22;31691;51.972;5.672;2023-09-12T07:39:51;28.20;99.90
36434;DHT22;31691;51.972;5.672;2023-09-12T07:44:54;28.50;99.90
36434;DHT22;31691;51.972;5.672;2023-09-12T07:49:56;28.60;99.90
36434;DHT22;31691;51.972;5.672;2023-09-12T07:55:00;28.60;99.90
36434;DHT22;31691;51.972;5.672;2023-09-12T08:00:04;28.50;99.90
36434;DHT22;31691;51.972;5.672;2023-09-12T08:05:11;28.40;99.90
36434;DHT22;31691;51.972;5.672;2023-09-12T08:10:13;28.30;99.90
36434;DHT22;31691;51.972;5.672;2023-09-12T08:15:15;28.40;99.90
36434;DHT22;31691;51.972;5.672;2023-09-12T08:20:19;28.70;99.90
36434;DHT22;31691;51.972;5.672;2023-09-12T08:25:21;29.20;99.90
36434;DHT22;31691;51.972;5.672;2023-09-12T08:30:24;29.30;99.20
36434;DHT22;31691;51.972;5.672;2023-09-12T08:35:27;29.30;98.70
36434;DHT22;31691;51.972;5.672;2023-09-12T08:40:29;29.10;98.50
36434;DHT22;31691;51.972;5.672;2023-09-12T08:45:32;28.80;98.90
36434;DHT22;31691;51.972;5.672;2023-09-12T08:50:34;28.80;99.20
36434;DHT22;31691;51.972;5.672;2023-09-12T08:55:37;28.80;99.30
36434;DHT22;31691;51.972;5.672;2023-09-12T09:00:39;28.60;99.40
36434;DHT22;31691;51.972;5.672;2023-09-12T09:05:44;28.80;98.40
36434;DHT22;31691;51.972;5.672;2023-09-12T09:10:57;28.80;98.90
36434;DHT22;31691;51.972;5.672;2023-09-12T09:16:16;29.10;98.40
36434;DHT22;31691;51.972;5.672;2023-09-12T09:21:20;29.30;97.80
36434;DHT22;31691;51.972;5.672;2023-09-12T09:26:54;29.30;97.70
36434;DHT22;31691;51.972;5.672;2023-09-12T09:32:03;29.30;97.80
36434;DHT22;31691;51.972;5.672;2023-09-12T09:37:19;29.50;98.00
36434;DHT22;31691;51.972;5.672;2023-09-12T09:42:21;29.80;97.70
36434;DHT22;31691;51.972;5.672;2023-09-12T09:47:24;30.00;97.20
36434;DHT22;31691;51.972;5.672;2023-09-12T09:52:26;30.20;97.00
36434;DHT22;31691;51.972;5.672;2023-09-12T09:57:30;30.30;95.70
36434;DHT22;31691;51.972;5.672;2023-09-12T10:02:32;30.40;95.00
36434;DHT22;31691;51.972;5.672;2023-09-12T10:07:37;30.40;95.60
36434;DHT22;31691;51.972;5.672;2023-09-12T10:12:48;30.40;95.20
36434;DHT22;31691;51.972;5.672;2023-09-12T10:17:55;30.50;95.80
36434;DHT22;31691;51.972;5.672;2023-09-12T10:23:06;30.60;94.40
36434;DHT22;31691;51.972;5.672;2023-09-12T10:28:11;30.80;94.90
36434;DHT22;31691;51.972;5.672;2023-09-12T10:33:15;30.90;94.30
36434;DHT22;31691;51.972;5.672;2023-09-12T10:38:18;30.90;94.30
36434;DHT22;31691;51.972;5.672;2023-09-12T10:43:23;31.30;94.10
36434;DHT22;31691;51.972;5.672;2023-09-12T10:48:27;31.40;94.10
36434;DHT22;31691;51.972;5.672;2023-09-12T10:53:30;31.80;93.40
36434;DHT22;31691;51.972;5.672;2023-09-12T10:58:32;32.20;91.90
36434;DHT22;31691;51.972;5.672;2023-09-12T11:09:36;32.70;92.00
36434;DHT22;31691;51.972;5.672;2023-09-12T11:14:27;33.30;91.50
36434;DHT22;31691;51.972;5.672;2023-09-12T11:19:43;32.90;91.50
36434;DHT22;31691;51.972;5.672;2023-09-12T11:24:46;33.10;91.30
36434;DHT22;31691;51.972;5.672;2023-09-12T11:29:49;33.20;91.50
36434;DHT22;31691;51.972;5.672;2023-09-12T11:34:52;33.40;91.80
36434;DHT22;31691;51.972;5.672;2023-09-12T11:39:54;33.50;91.30
36434;DHT22;31691;51.972;5.672;2023-09-12T11:44:57;33.50;90.90
36434;DHT22;31691;51.972;5.672;2023-09-12T11:49:59;33.40;90.90
36434;DHT22;31691;51.972;5.672;2023-09-12T11:55:02;32.40;91.40
36434;DHT22;31691;51.972;5.672;2023-09-12T12:00:04;32.40;91.40
36434;DHT22;31691;51.972;5.672;2023-09-12T12:05:10;32.40;92.20
36434;DHT22;31691;51.972;5.672;2023-09-12T12:10:13;32.70;91.30
36434;DHT22;31691;51.972;5.672;2023-09-12T12:15:15;32.80;91.40
36434;DHT22;31691;51.972;5.672;2023-09-12T12:20:18;33.00;90.90
36434;DHT22;31691;51.972;5.672;2023-09-12T12:25:20;32.90;90.90
36434;DHT22;31691;51.972;5.672;2023-09-12T12:30:24;33.00;91.00
36434;DHT22;31691;51.972;5.672;2023-09-12T12:35:26;32.70;89.80
36434;DHT22;31691;51.972;5.672;2023-09-12T12:40:48;33.00;90.70
36434;DHT22;31691;51.972;5.672;2023-09-12T12:45:53;32.90;90.20
36434;DHT22;31691;51.972;5.672;2023-09-12T12:50:57;33.00;88.90
36434;DHT22;31691;51.972;5.672;2023-09-12T12:55:59;33.00;90.00
36434;DHT22;31691;51.972;5.672;2023-09-12T13:01:02;32.80;90.20
36434;DHT22;31691;51.972;5.672;2023-09-12T13:06:05;33.20;90.30
36434;DHT22;31691;51.972;5.672;2023-09-12T13:11:10;33.70;89.20
36434;DHT22;31691;51.972;5.672;2023-09-12T13:16:15;34.10;86.90
36434;DHT22;31691;51.972;5.672;2023-09-12T13:21:17;34.50;87.60
36434;DHT22;31691;51.972;5.672;2023-09-12T13:26:19;34.60;84.10
36434;DHT22;31691;51.972;5.672;2023-09-12T13:31:22;34.70;84.40
36434;DHT22;31691;51.972;5.672;2023-09-12T13:36:24;35.10;82.50
36434;DHT22;31691;51.972;5.672;2023-09-12T13:41:26;35.40;83.50
36434;DHT22;31691;51.972;5.672;2023-09-12T13:46:29;35.70;82.90
36434;DHT22;31691;51.972;5.672;2023-09-12T13:51:32;35.70;81.00
36434;DHT22;31691;51.972;5.672;2023-09-12T13:56:34;35.70;82.00
36434;DHT22;31691;51.972;5.672;2023-09-12T14:01:38;35.60;81.30
36434;DHT22;31691;51.972;5.672;2023-09-12T14:06:40;35.40;82.30
36434;DHT22;31691;51.972;5.672;2023-09-12T14:11:43;35.10;82.10
36434;DHT22;31691;51.972;5.672;2023-09-12T14:16:47;34.70;82.80
36434;DHT22;31691;51.972;5.672;2023-09-12T14:21:50;34.60;83.40
36434;DHT22;31691;51.972;5.672;2023-09-12T14:26:55;34.60;83.00
36434;DHT22;31691;51.972;5.672;2023-09-12T14:31:59;34.70;82.50
36434;DHT22;31691;51.972;5.672;2023-09-12T14:37:01;34.60;81.60
36434;DHT22;31691;51.972;5.672;2023-09-12T14:42:04;34.60;81.40
36434;DHT22;31691;51.972;5.672;2023-09-12T14:47:10;34.80;80.70
36434;DHT22;31691;51.972;5.672;2023-09-12T14:52:12;34.70;83.50
36434;DHT22;31691;51.972;5.672;2023-09-12T14:57:26;34.50;83.80
36434;DHT22;31691;51.972;5.672;2023-09-12T15:02:29;34.20;85.20
36434;DHT22;31691;51.972;5.672;2023-09-12T15:07:33;33.90;84.80
36434;DHT22;31691;51.972;5.672;2023-09-12T15:12:37;33.60;85.90
36434;DHT22;31691;51.972;5.672;2023-09-12T15:17:39;33.40;86.30
36434;DHT22;31691;51.972;5.672;2023-09-12T15:22:42;33.00;86.50
36434;DHT22;31691;51.972;5.672;2023-09-12T15:27:45;32.70;86.10
36434;DHT22;31691;51.972;5.672;2023-09-12T15:32:47;32.50;87.10
36434;DHT22;31691;51.972;5.672;2023-09-12T15:37:50;32.40;87.80
36434;DHT22;31691;51.972;5.672;2023-09-12T15:42:53;32.30;87.80
36434;DHT22;31691;51.972;5.672;2023-09-12T15:47:55;32.20;89.00
36434;DHT22;31691;51.972;5.672;2023-09-12T15:52:58;31.90;90.40
36434;DHT22;31691;51.972;5.672;2023-09-12T15:58:00;31.80;91.30
36434;DHT22;31691;51.972;5.672;2023-09-12T16:03:03;31.80;91.50
36434;DHT22;31691;51.972;5.672;2023-09-12T16:08:07;31.80;90.70
36434;DHT22;31691;51.972;5.672;2023-09-12T16:13:09;31.90;91.30
36434;DHT22;31691;51.972;5.672;2023-09-12T16:18:12;31.80;91.70
36434;DHT22;31691;51.972;5.672;2023-09-12T16:23:14;31.70;91.40
36434;DHT22;31691;51.972;5.672;2023-09-12T16:28:16;31.30;91.80
36434;DHT22;31691;51.972;5.672;2023-09-12T16:33:19;31.00;92.00
36434;DHT22;31691;51.972;5.672;2023-09-12T16:38:22;30.60;91.90
36434;DHT22;31691;51.972;5.672;2023-09-12T16:43:25;30.40;92.50
36434;DHT22;31691;51.972;5.672;2023-09-12T16:48:27;30.10;92.80
36434;DHT22;31691;51.972;5.672;2023-09-12T16:53:31;30.10;92.90
36434;DHT22;31691;51.972;5.672;2023-09-12T16:58:33;30.40;92.50
36434;DHT22;31691;51.972;5.672;2023-09-12T17:03:36;30.40;92.20
36434;DHT22;31691;51.972;5.672;2023-09-12T17:08:38;29.80;92.60
36434;DHT22;31691;51.972;5.672;2023-09-12T17:13:40;29.90;92.80
36434;DHT22;31691;51.972;5.672;2023-09-12T17:18:43;29.80;92.60
36434;DHT22;31691;51.972;5.672;2023-09-12T17:23:45;29.40;93.10
36434;DHT22;31691;51.972;5.672;2023-09-12T17:28:47;29.40;93.20
36434;DHT22;31691;51.972;5.672;2023-09-12T17:33:50;29.50;93.40
36434;DHT22;31691;51.972;5.672;2023-09-12T17:38:52;29.40;93.50
36434;DHT22;31691;51.972;5.672;2023-09-12T17:43:54;28.60;94.30
36434;DHT22;31691;51.972;5.672;2023-09-12T17:48:58;28.60;94.60
36434;DHT22;31691;51.972;5.672;2023-09-12T17:54:01;28.70;94.70
36434;DHT22;31691;51.972;5.672;2023-09-12T17:59:03;28.60;94.80
36434;DHT22;31691;51.972;5.672;2023-09-12T18:04:06;28.60;94.80
36434;DHT22;31691;51.972;5.672;2023-09-12T18:09:08;28.60;95.00
36434;DHT22;31691;51.972;5.672;2023-09-12T18:14:11;28.60;95.40
36434;DHT22;31691;51.972;5.672;2023-09-12T18:19:13;28.40;95.70
36434;DHT22;31691;51.972;5.672;2023-09-12T18:24:16;28.80;95.60
36434;DHT22;31691;51.972;5.672;2023-09-12T18:29:18;28.20;96.30
36434;DHT22;31691;51.972;5.672;2023-09-12T18:34:21;27.90;97.20
36434;DHT22;31691;51.972;5.672;2023-09-12T18:39:23;27.60;98.20
36434;DHT22;31691;51.972;5.672;2023-09-12T18:44:25;27.90;97.80
36434;DHT22;31691;51.972;5.672;2023-09-12T18:49:27;27.10;99.60
36434;DHT22;31691;51.972;5.672;2023-09-12T18:54:32;27.60;99.10
36434;DHT22;31691;51.972;5.672;2023-09-12T18:59:35;27.90;98.80
36434;DHT22;31691;51.972;5.672;2023-09-12T19:04:38;28.10;98.30
36434;DHT22;31691;51.972;5.672;2023-09-12T19:09:40;28.10;98.40
36434;DHT22;31691;51.972;5.672;2023-09-12T19:14:43;28.10;98.40
36434;DHT22;31691;51.972;5.672;2023-09-12T19:19:45;28.10;98.30
36434;DHT22;31691;51.972;5.672;2023-09-12T19:24:47;28.10;98.50
36434;DHT22;31691;51.972;5.672;2023-09-12T19:29:52;27.90;99.20
36434;DHT22;31691;51.972;5.672;2023-09-12T19:34:54;28.00;98.60
36434;DHT22;31691;51.972;5.672;2023-09-12T19:39:57;28.10;99.20
36434;DHT22;31691;51.972;5.672;2023-09-12T19:44:59;28.00;99.60
36434;DHT22;31691;51.972;5.672;2023-09-12T19:50:01;27.90;99.90
36434;DHT22;31691;51.972;5.672;2023-09-12T19:55:04;27.60;99.90
36434;DHT22;31691;51.972;5.672;2023-09-12T20:00:07;27.60;99.90
36434;DHT22;31691;51.972;5.672;2023-09-12T20:05:10;27.40;99.90
36434;DHT22;31691;51.972;5.672;2023-09-12T20:10:12;26.90;99.90
36434;DHT22;31691;51.972;5.672;2023-09-12T20:15:14;27.00;99.90
36434;DHT22;31691;51.972;5.672;2023-09-12T20:20:17;27.00;99.90
36434;DHT22;31691;51.972;5.672;2023-09-12T20:25:20;27.10;99.90
36434;DHT22;31691;51.972;5.672;2023-09-12T20:30:23;27.00;99.90
36434;DHT22;31691;51.972;5.672;2023-09-12T20:35:27;27.00;99.90
36434;DHT22;31691;51.972;5.672;2023-09-12T20:40:30;26.90;99.90
36434;DHT22;31691;51.972;5.672;2023-09-12T20:45:33;26.80;99.90
36434;DHT22;31691;51.972;5.672;2023-09-12T20:50:36;26.60;99.90
36434;DHT22;31691;51.972;5.672;2023-09-12T20:55:38;26.40;99.90
36434;DHT22;31691;51.972;5.672;2023-09-12T21:00:40;26.30;99.90
36434;DHT22;31691;51.972;5.672;2023-09-12T21:05:45;26.50;99.90
36434;DHT22;31691;51.972;5.672;2023-09-12T21:10:47;26.70;99.90
36434;DHT22;31691;51.972;5.672;2023-09-12T21:15:50;26.80;99.90
36434;DHT22;31691;51.972;5.672;2023-09-12T21:20:53;26.10;99.90
36434;DHT22;31691;51.972;5.672;2023-09-12T21:25:55;26.10;99.90
36434;DHT22;31691;51.972;5.672;2023-09-12T21:30:59;26.30;99.90
36434;DHT22;31691;51.972;5.672;2023-09-12T21:36:01;26.30;99.90
36434;DHT22;31691;51.972;5.672;2023-09-12T21:41:04;26.30;99.90
36434;DHT22;31691;51.972;5.672;2023-09-12T21:46:07;26.40;99.90
36434;DHT22;31691;51.972;5.672;2023-09-12T21:51:09;26.50;99.90
36434;DHT22;31691;51.972;5.672;2023-09-12T21:56:12;26.70;99.90
36434;DHT22;31691;51.972;5.672;2023-09-12T22:01:15;26.80;99.90
36434;DHT22;31691;51.972;5.672;2023-09-12T22:06:18;26.80;99.90
36434;DHT22;31691;51.972;5.672;2023-09-12T22:11:20;26.90;99.90
36434;DHT22;31691;51.972;5.672;2023-09-12T22:16:22;26.90;99.90
36434;DHT22;31691;51.972;5.672;2023-09-12T22:21:25;26.90;99.90
36434;DHT22;31691;51.972;5.672;2023-09-12T22:26:27;26.90;99.90
36434;DHT22;31691;51.972;5.672;2023-09-12T22:31:29;26.90;99.90
36434;DHT22;31691;51.972;5.672;2023-09-12T22:36:33;26.90;99.90
36434;DHT22;31691;51.972;5.672;2023-09-12T22:41:36;26.80;99.90
36434;DHT22;31691;51.972;5.672;2023-09-12T22:46:38;26.80;99.90
36434;DHT22;31691;51.972;5.672;2023-09-12T22:51:40;26.80;99.90
36434;DHT22;31691;51.972;5.672;2023-09-12T22:56:42;26.80;99.90
36434;DHT22;31691;51.972;5.672;2023-09-12T23:01:45;26.80;99.90
36434;DHT22;31691;51.972;5.672;2023-09-12T23:06:47;26.80;99.90
36434;DHT22;31691;51.972;5.672;2023-09-12T23:11:49;26.80;99.90
36434;DHT22;31691;51.972;5.672;2023-09-12T23:16:52;26.80;99.90
36434;DHT22;31691;51.972;5.672;2023-09-12T23:21:55;26.80;99.90
36434;DHT22;31691;51.972;5.672;2023-09-12T23:26:57;26.90;99.90
36434;DHT22;31691;51.972;5.672;2023-09-12T23:31:59;26.90;99.90
36434;DHT22;31691;51.972;5.672;2023-09-12T23:37:02;26.80;99.90
36434;DHT22;31691;51.972;5.672;2023-09-12T23:42:04;26.80;99.90
36434;DHT22;31691;51.972;5.672;2023-09-12T23:47:07;26.80;99.90
36434;DHT22;31691;51.972;5.672;2023-09-12T23:52:09;26.70;99.90
36434;DHT22;31691;51.972;5.672;2023-09-12T23:57:13;26.70;99.90
